sensor_id;sensor_type;location;lat;lon;timestamp;pressure;altitude;pressure_sealevel;temperature;humidity
64844;BME280;51310;52.198;5.422;2023-04-24T00:00:05;99603.13;;;8.32;100.00
64844;BME280;51310;52.198;5.422;2023-04-24T00:02:32;99586.09;;;8.33;100.00
64844;BME280;51310;52.198;5.422;2023-04-24T00:04:59;99596.34;;;8.33;100.00
64844;BME280;51310;52.198;5.422;2023-04-24T00:07:29;99603.53;;;8.37;100.00
64844;BME280;51310;52.198;5.422;2023-04-24T00:09:55;99611.06;;;8.35;100.00
64844;BME280;51310;52.198;5.422;2023-04-24T00:12:21;99610.81;;;8.32;100.00
64844;BME280;51310;52.198;5.422;2023-04-24T00:14:46;99623.38;;;8.29;100.00
64844;BME280;51310;52.198;5.422;2023-04-24T00:17:13;99612.22;;;8.29;100.00
64844;BME280;51310;52.198;5.422;2023-04-24T00:19:38;99615.44;;;8.26;100.00
64844;BME280;51310;52.198;5.422;2023-04-24T00:22:04;99622.97;;;8.25;100.00
64844;BME280;51310;52.198;5.422;2023-04-24T00:24:30;99630.66;;;8.25;100.00
64844;BME280;51310;52.198;5.422;2023-04-24T00:26:56;99633.38;;;8.26;100.00
64844;BME280;51310;52.198;5.422;2023-04-24T00:29:22;99643.47;;;8.25;100.00
64844;BME280;51310;52.198;5.422;2023-04-24T00:31:48;99635.41;;;8.20;100.00
64844;BME280;51310;52.198;5.422;2023-04-24T00:34:14;99645.00;;;8.22;100.00
64844;BME280;51310;52.198;5.422;2023-04-24T00:36:40;99640.13;;;8.15;100.00
64844;BME280;51310;52.198;5.422;2023-04-24T00:39:05;99641.03;;;8.16;100.00
64844;BME280;51310;52.198;5.422;2023-04-24T00:41:34;99641.41;;;8.10;100.00
64844;BME280;51310;52.198;5.422;2023-04-24T00:44:00;99644.09;;;8.12;100.00
64844;BME280;51310;52.198;5.422;2023-04-24T00:46:26;99639.59;;;8.09;100.00
64844;BME280;51310;52.198;5.422;2023-04-24T00:48:52;99646.41;;;8.09;100.00
64844;BME280;51310;52.198;5.422;2023-04-24T00:51:18;99635.25;;;8.08;100.00
64844;BME280;51310;52.198;5.422;2023-04-24T00:53:44;99648.31;;;8.11;100.00
64844;BME280;51310;52.198;5.422;2023-04-24T00:56:10;99637.94;;;8.10;100.00
64844;BME280;51310;52.198;5.422;2023-04-24T00:58:36;99652.16;;;8.06;100.00
64844;BME280;51310;52.198;5.422;2023-04-24T01:01:02;99655.34;;;8.04;100.00
64844;BME280;51310;52.198;5.422;2023-04-24T01:03:32;99660.19;;;8.00;100.00
64844;BME280;51310;52.198;5.422;2023-04-24T01:05:59;99656.34;;;7.95;100.00
64844;BME280;51310;52.198;5.422;2023-04-24T01:08:28;99654.28;;;7.91;100.00
64844;BME280;51310;52.198;5.422;2023-04-24T01:10:55;99664.28;;;7.98;100.00
64844;BME280;51310;52.198;5.422;2023-04-24T01:13:22;99656.75;;;8.00;100.00
64844;BME280;51310;52.198;5.422;2023-04-24T01:15:48;99664.56;;;8.01;100.00
64844;BME280;51310;52.198;5.422;2023-04-24T01:18:15;99676.09;;;8.07;100.00
64844;BME280;51310;52.198;5.422;2023-04-24T01:20:42;99675.31;;;8.08;100.00
64844;BME280;51310;52.198;5.422;2023-04-24T01:23:09;99675.63;;;8.11;100.00
64844;BME280;51310;52.198;5.422;2023-04-24T01:25:37;99680.25;;;8.15;100.00
64844;BME280;51310;52.198;5.422;2023-04-24T01:28:03;99684.34;;;8.13;100.00
64844;BME280;51310;52.198;5.422;2023-04-24T01:30:30;99685.09;;;8.12;100.00
64844;BME280;51310;52.198;5.422;2023-04-24T01:32:56;99682.53;;;8.12;100.00
64844;BME280;51310;52.198;5.422;2023-04-24T01:35:22;99690.50;;;8.15;100.00
64844;BME280;51310;52.198;5.422;2023-04-24T01:37:48;99692.28;;;8.16;100.00
64844;BME280;51310;52.198;5.422;2023-04-24T01:40:13;99692.44;;;8.17;100.00
64844;BME280;51310;52.198;5.422;2023-04-24T01:42:41;99693.94;;;8.15;100.00
64844;BME280;51310;52.198;5.422;2023-04-24T01:45:11;99703.31;;;8.15;100.00
64844;BME280;51310;52.198;5.422;2023-04-24T01:47:38;99703.03;;;8.12;100.00
64844;BME280;51310;52.198;5.422;2023-04-24T01:50:05;99705.72;;;8.13;100.00
64844;BME280;51310;52.198;5.422;2023-04-24T01:52:32;99702.41;;;8.14;100.00
64844;BME280;51310;52.198;5.422;2023-04-24T01:55:03;99702.13;;;8.11;100.00
64844;BME280;51310;52.198;5.422;2023-04-24T01:57:31;99707.13;;;8.10;100.00
64844;BME280;51310;52.198;5.422;2023-04-24T01:59:57;99705.34;;;8.09;100.00
64844;BME280;51310;52.198;5.422;2023-04-24T02:02:23;99702.63;;;8.07;100.00
64844;BME280;51310;52.198;5.422;2023-04-24T02:04:50;99706.84;;;8.07;100.00
64844;BME280;51310;52.198;5.422;2023-04-24T02:07:16;99700.84;;;8.06;100.00
64844;BME280;51310;52.198;5.422;2023-04-24T02:09:41;99714.53;;;8.07;100.00
64844;BME280;51310;52.198;5.422;2023-04-24T02:12:07;99709.16;;;8.04;100.00
64844;BME280;51310;52.198;5.422;2023-04-24T02:14:33;99708.38;;;8.05;100.00
64844;BME280;51310;52.198;5.422;2023-04-24T02:16:59;99706.72;;;8.05;100.00
64844;BME280;51310;52.198;5.422;2023-04-24T02:19:26;99699.31;;;8.08;100.00
64844;BME280;51310;52.198;5.422;2023-04-24T02:21:52;99701.72;;;8.07;100.00
64844;BME280;51310;52.198;5.422;2023-04-24T02:24:17;99706.22;;;8.09;100.00
64844;BME280;51310;52.198;5.422;2023-04-24T02:26:43;99713.03;;;8.09;100.00
64844;BME280;51310;52.198;5.422;2023-04-24T02:29:09;99715.31;;;8.06;100.00
64844;BME280;51310;52.198;5.422;2023-04-24T02:31:35;99713.66;;;8.06;100.00
64844;BME280;51310;52.198;5.422;2023-04-24T02:34:00;99717.09;;;8.07;100.00
64844;BME280;51310;52.198;5.422;2023-04-24T02:36:26;99702.50;;;8.06;100.00
64844;BME280;51310;52.198;5.422;2023-04-24T02:38:52;99714.53;;;8.07;100.00
64844;BME280;51310;52.198;5.422;2023-04-24T02:41:17;99710.94;;;8.05;100.00
64844;BME280;51310;52.198;5.422;2023-04-24T02:43:43;99711.59;;;8.02;100.00
64844;BME280;51310;52.198;5.422;2023-04-24T02:46:09;99714.88;;;8.01;100.00
64844;BME280;51310;52.198;5.422;2023-04-24T02:48:34;99715.53;;;7.98;100.00
64844;BME280;51310;52.198;5.422;2023-04-24T02:51:00;99720.78;;;8.00;100.00
64844;BME280;51310;52.198;5.422;2023-04-24T02:53:26;99712.22;;;7.99;100.00
64844;BME280;51310;52.198;5.422;2023-04-24T02:55:51;99719.91;;;7.99;100.00
64844;BME280;51310;52.198;5.422;2023-04-24T02:58:17;99712.84;;;7.97;100.00
64844;BME280;51310;52.198;5.422;2023-04-24T03:00:46;99709.38;;;7.96;100.00
64844;BME280;51310;52.198;5.422;2023-04-24T03:03:12;99711.28;;;7.99;100.00
64844;BME280;51310;52.198;5.422;2023-04-24T03:05:38;99712.22;;;7.99;100.00
64844;BME280;51310;52.198;5.422;2023-04-24T03:08:04;99709.25;;;7.95;100.00
64844;BME280;51310;52.198;5.422;2023-04-24T03:10:30;99707.44;;;7.94;100.00
64844;BME280;51310;52.198;5.422;2023-04-24T03:12:56;99711.19;;;7.97;100.00
64844;BME280;51310;52.198;5.422;2023-04-24T03:15:21;99711.53;;;7.92;100.00
64844;BME280;51310;52.198;5.422;2023-04-24T03:17:47;99713.94;;;7.90;100.00
64844;BME280;51310;52.198;5.422;2023-04-24T03:20:13;99707.78;;;7.88;100.00
64844;BME280;51310;52.198;5.422;2023-04-24T03:22:40;99715.34;;;7.87;100.00
64844;BME280;51310;52.198;5.422;2023-04-24T03:25:06;99709.44;;;7.88;100.00
64844;BME280;51310;52.198;5.422;2023-04-24T03:27:33;99712.50;;;7.84;100.00
64844;BME280;51310;52.198;5.422;2023-04-24T03:29:59;99708.00;;;7.81;100.00
64844;BME280;51310;52.198;5.422;2023-04-24T03:32:26;99714.94;;;7.82;100.00
64844;BME280;51310;52.198;5.422;2023-04-24T03:34:51;99714.81;;;7.80;100.00
64844;BME280;51310;52.198;5.422;2023-04-24T03:37:17;99718.56;;;7.84;100.00
64844;BME280;51310;52.198;5.422;2023-04-24T03:39:43;99728.16;;;7.87;100.00
64844;BME280;51310;52.198;5.422;2023-04-24T03:42:09;99726.25;;;7.84;100.00
64844;BME280;51310;52.198;5.422;2023-04-24T03:44:35;99716.59;;;7.81;100.00
64844;BME280;51310;52.198;5.422;2023-04-24T03:47:01;99725.59;;;7.87;100.00
64844;BME280;51310;52.198;5.422;2023-04-24T03:49:27;99719.84;;;7.89;100.00
64844;BME280;51310;52.198;5.422;2023-04-24T03:51:53;99720.00;;;7.91;100.00
64844;BME280;51310;52.198;5.422;2023-04-24T03:54:19;99725.72;;;7.88;100.00
64844;BME280;51310;52.198;5.422;2023-04-24T03:56:45;99722.00;;;7.85;100.00
64844;BME280;51310;52.198;5.422;2023-04-24T03:59:11;99729.31;;;7.90;100.00
64844;BME280;51310;52.198;5.422;2023-04-24T04:01:37;99730.31;;;7.82;100.00
64844;BME280;51310;52.198;5.422;2023-04-24T04:04:04;99732.72;;;7.80;100.00
64844;BME280;51310;52.198;5.422;2023-04-24T04:06:29;99735.00;;;7.77;100.00
64844;BME280;51310;52.198;5.422;2023-04-24T04:08:59;99740.91;;;7.76;100.00
64844;BME280;51310;52.198;5.422;2023-04-24T04:11:25;99742.56;;;7.76;100.00
64844;BME280;51310;52.198;5.422;2023-04-24T04:13:51;99743.31;;;7.75;100.00
64844;BME280;51310;52.198;5.422;2023-04-24T04:16:17;99742.16;;;7.71;100.00
64844;BME280;51310;52.198;5.422;2023-04-24T04:18:43;99748.19;;;7.72;100.00
64844;BME280;51310;52.198;5.422;2023-04-24T04:21:09;99750.88;;;7.73;100.00
64844;BME280;51310;52.198;5.422;2023-04-24T04:23:35;99743.06;;;7.72;100.00
64844;BME280;51310;52.198;5.422;2023-04-24T04:26:02;99758.69;;;7.75;100.00
64844;BME280;51310;52.198;5.422;2023-04-24T04:28:29;99750.34;;;7.67;100.00
64844;BME280;51310;52.198;5.422;2023-04-24T04:30:56;99763.53;;;7.72;100.00
64844;BME280;51310;52.198;5.422;2023-04-24T04:33:26;99763.75;;;7.65;100.00
64844;BME280;51310;52.198;5.422;2023-04-24T04:35:52;99767.97;;;7.64;100.00
64844;BME280;51310;52.198;5.422;2023-04-24T04:38:19;99768.88;;;7.65;100.00
64844;BME280;51310;52.198;5.422;2023-04-24T04:40:45;99773.72;;;7.62;100.00
64844;BME280;51310;52.198;5.422;2023-04-24T04:43:11;99781.53;;;7.63;100.00
64844;BME280;51310;52.198;5.422;2023-04-24T04:45:38;99780.50;;;7.61;100.00
64844;BME280;51310;52.198;5.422;2023-04-24T04:48:05;99784.59;;;7.59;100.00
64844;BME280;51310;52.198;5.422;2023-04-24T04:50:33;99787.72;;;7.65;100.00
64844;BME280;51310;52.198;5.422;2023-04-24T04:52:59;99797.47;;;7.69;100.00
64844;BME280;51310;52.198;5.422;2023-04-24T04:55:25;99799.88;;;7.68;100.00
64844;BME280;51310;52.198;5.422;2023-04-24T04:57:51;99797.16;;;7.66;100.00
64844;BME280;51310;52.198;5.422;2023-04-24T05:00:17;99804.38;;;7.70;100.00
64844;BME280;51310;52.198;5.422;2023-04-24T05:02:43;99807.66;;;7.78;100.00
64844;BME280;51310;52.198;5.422;2023-04-24T05:05:10;99809.72;;;7.82;100.00
64844;BME280;51310;52.198;5.422;2023-04-24T05:07:36;99808.06;;;7.83;100.00
64844;BME280;51310;52.198;5.422;2023-04-24T05:10:02;99811.81;;;7.86;100.00
64844;BME280;51310;52.198;5.422;2023-04-24T05:12:28;99813.84;;;7.90;100.00
64844;BME280;51310;52.198;5.422;2023-04-24T05:14:53;99816.31;;;7.89;100.00
64844;BME280;51310;52.198;5.422;2023-04-24T05:17:19;99824.53;;;7.95;100.00
64844;BME280;51310;52.198;5.422;2023-04-24T05:19:45;99825.91;;;7.91;100.00
64844;BME280;51310;52.198;5.422;2023-04-24T05:22:11;99832.09;;;7.93;100.00
64844;BME280;51310;52.198;5.422;2023-04-24T05:24:38;99828.00;;;7.95;100.00
64844;BME280;51310;52.198;5.422;2023-04-24T05:27:04;99837.94;;;7.92;100.00
64844;BME280;51310;52.198;5.422;2023-04-24T05:29:30;99835.75;;;7.87;100.00
64844;BME280;51310;52.198;5.422;2023-04-24T05:31:57;99841.63;;;7.86;100.00
64844;BME280;51310;52.198;5.422;2023-04-24T05:34:23;99848.28;;;7.84;100.00
64844;BME280;51310;52.198;5.422;2023-04-24T05:36:49;99852.50;;;7.83;100.00
64844;BME280;51310;52.198;5.422;2023-04-24T05:39:16;99859.44;;;7.84;100.00
64844;BME280;51310;52.198;5.422;2023-04-24T05:41:42;99860.66;;;7.79;100.00
64844;BME280;51310;52.198;5.422;2023-04-24T05:44:08;99858.09;;;7.79;100.00
64844;BME280;51310;52.198;5.422;2023-04-24T05:46:33;99858.88;;;7.78;100.00
64844;BME280;51310;52.198;5.422;2023-04-24T05:48:59;99870.50;;;7.74;100.00
64844;BME280;51310;52.198;5.422;2023-04-24T05:51:25;99880.47;;;7.71;100.00
64844;BME280;51310;52.198;5.422;2023-04-24T05:53:51;99890.56;;;7.70;100.00
64844;BME280;51310;52.198;5.422;2023-04-24T05:56:18;99885.63;;;7.63;100.00
64844;BME280;51310;52.198;5.422;2023-04-24T05:58:44;99894.41;;;7.56;100.00
64844;BME280;51310;52.198;5.422;2023-04-24T06:01:11;99898.97;;;7.50;100.00
64844;BME280;51310;52.198;5.422;2023-04-24T06:03:38;99903.31;;;7.51;100.00
64844;BME280;51310;52.198;5.422;2023-04-24T06:06:06;99903.94;;;7.48;100.00
64844;BME280;51310;52.198;5.422;2023-04-24T06:08:32;99909.97;;;7.40;100.00
64844;BME280;51310;52.198;5.422;2023-04-24T06:10:58;99918.28;;;7.37;100.00
64844;BME280;51310;52.198;5.422;2023-04-24T06:13:24;99923.88;;;7.33;100.00
64844;BME280;51310;52.198;5.422;2023-04-24T06:15:50;99926.00;;;7.29;100.00
64844;BME280;51310;52.198;5.422;2023-04-24T06:18:16;99930.53;;;7.23;100.00
64844;BME280;51310;52.198;5.422;2023-04-24T06:20:42;99930.25;;;7.19;100.00
64844;BME280;51310;52.198;5.422;2023-04-24T06:23:08;99941.81;;;7.25;100.00
64844;BME280;51310;52.198;5.422;2023-04-24T06:25:33;99937.59;;;7.25;100.00
64844;BME280;51310;52.198;5.422;2023-04-24T06:27:59;99949.97;;;7.21;100.00
64844;BME280;51310;52.198;5.422;2023-04-24T06:30:25;99955.06;;;7.21;100.00
64844;BME280;51310;52.198;5.422;2023-04-24T06:32:52;99959.16;;;7.18;100.00
64844;BME280;51310;52.198;5.422;2023-04-24T06:35:18;99970.16;;;7.17;100.00
64844;BME280;51310;52.198;5.422;2023-04-24T06:37:44;99978.09;;;7.21;100.00
64844;BME280;51310;52.198;5.422;2023-04-24T06:40:10;99990.44;;;7.25;100.00
64844;BME280;51310;52.198;5.422;2023-04-24T06:42:36;99996.47;;;7.25;100.00
64844;BME280;51310;52.198;5.422;2023-04-24T06:45:02;99997.38;;;7.26;100.00
64844;BME280;51310;52.198;5.422;2023-04-24T06:47:28;100002.97;;;7.22;100.00
64844;BME280;51310;52.198;5.422;2023-04-24T06:49:54;100000.53;;;7.14;100.00
64844;BME280;51310;52.198;5.422;2023-04-24T06:52:20;100009.72;;;7.12;100.00
64844;BME280;51310;52.198;5.422;2023-04-24T06:54:46;100031.84;;;7.12;100.00
64844;BME280;51310;52.198;5.422;2023-04-24T06:57:12;100030.81;;;7.10;100.00
64844;BME280;51310;52.198;5.422;2023-04-24T06:59:38;100043.31;;;7.07;100.00
64844;BME280;51310;52.198;5.422;2023-04-24T07:02:04;100032.19;;;7.06;100.00
64844;BME280;51310;52.198;5.422;2023-04-24T07:04:30;100039.09;;;7.07;100.00
64844;BME280;51310;52.198;5.422;2023-04-24T07:06:56;100049.78;;;7.03;100.00
64844;BME280;51310;52.198;5.422;2023-04-24T07:09:25;100054.00;;;7.03;100.00
64844;BME280;51310;52.198;5.422;2023-04-24T07:11:51;100062.56;;;7.03;100.00
64844;BME280;51310;52.198;5.422;2023-04-24T07:14:17;100072.19;;;7.06;100.00
64844;BME280;51310;52.198;5.422;2023-04-24T07:16:43;100074.75;;;6.97;100.00
64844;BME280;51310;52.198;5.422;2023-04-24T07:19:10;100080.31;;;6.93;100.00
64844;BME280;51310;52.198;5.422;2023-04-24T07:21:35;100092.81;;;6.90;100.00
64844;BME280;51310;52.198;5.422;2023-04-24T07:24:01;100092.50;;;6.87;100.00
64844;BME280;51310;52.198;5.422;2023-04-24T07:26:29;100100.78;;;6.84;100.00
64844;BME280;51310;52.198;5.422;2023-04-24T07:28:55;100107.72;;;6.85;100.00
64844;BME280;51310;52.198;5.422;2023-04-24T07:31:21;100106.66;;;6.83;100.00
64844;BME280;51310;52.198;5.422;2023-04-24T07:33:48;100108.16;;;6.81;100.00
64844;BME280;51310;52.198;5.422;2023-04-24T07:36:14;100122.00;;;6.83;100.00
64844;BME280;51310;52.198;5.422;2023-04-24T07:38:46;100125.47;;;6.84;100.00
64844;BME280;51310;52.198;5.422;2023-04-24T07:41:15;100134.97;;;6.85;100.00
64844;BME280;51310;52.198;5.422;2023-04-24T07:43:41;100135.53;;;6.82;100.00
64844;BME280;51310;52.198;5.422;2023-04-24T07:46:08;100138.41;;;6.85;100.00
64844;BME280;51310;52.198;5.422;2023-04-24T07:48:34;100148.47;;;6.84;100.00
64844;BME280;51310;52.198;5.422;2023-04-24T07:51:00;100152.88;;;6.85;100.00
64844;BME280;51310;52.198;5.422;2023-04-24T07:53:26;100153.88;;;6.87;100.00
64844;BME280;51310;52.198;5.422;2023-04-24T07:55:52;100161.00;;;6.89;100.00
64844;BME280;51310;52.198;5.422;2023-04-24T07:58:17;100156.16;;;6.92;100.00
64844;BME280;51310;52.198;5.422;2023-04-24T08:00:43;100163.84;;;6.92;100.00
64844;BME280;51310;52.198;5.422;2023-04-24T08:03:09;100161.00;;;6.98;100.00
64844;BME280;51310;52.198;5.422;2023-04-24T08:05:34;100168.22;;;6.93;100.00
64844;BME280;51310;52.198;5.422;2023-04-24T08:08:00;100173.34;;;6.93;100.00
64844;BME280;51310;52.198;5.422;2023-04-24T08:10:26;100184.75;;;6.88;100.00
64844;BME280;51310;52.198;5.422;2023-04-24T08:12:52;100193.03;;;6.86;100.00
64844;BME280;51310;52.198;5.422;2023-04-24T08:15:18;100199.00;;;6.77;100.00
64844;BME280;51310;52.198;5.422;2023-04-24T08:17:44;100203.50;;;6.71;100.00
64844;BME280;51310;52.198;5.422;2023-04-24T08:20:11;100218.56;;;6.68;100.00
64844;BME280;51310;52.198;5.422;2023-04-24T08:22:43;100220.94;;;6.67;100.00
64844;BME280;51310;52.198;5.422;2023-04-24T08:25:10;100219.44;;;6.69;100.00
64844;BME280;51310;52.198;5.422;2023-04-24T08:27:36;100224.56;;;6.69;100.00
64844;BME280;51310;52.198;5.422;2023-04-24T08:30:04;100243.34;;;6.69;100.00
64844;BME280;51310;52.198;5.422;2023-04-24T08:32:30;100244.13;;;6.68;100.00
64844;BME280;51310;52.198;5.422;2023-04-24T08:34:56;100271.44;;;6.61;100.00
64844;BME280;51310;52.198;5.422;2023-04-24T08:37:23;100260.16;;;6.58;100.00
64844;BME280;51310;52.198;5.422;2023-04-24T08:39:52;100261.19;;;6.52;100.00
64844;BME280;51310;52.198;5.422;2023-04-24T08:42:19;100269.31;;;6.56;100.00
64844;BME280;51310;52.198;5.422;2023-04-24T08:44:48;100270.25;;;6.57;100.00
64844;BME280;51310;52.198;5.422;2023-04-24T08:47:15;100274.13;;;6.53;100.00
64844;BME280;51310;52.198;5.422;2023-04-24T08:49:42;100286.50;;;6.57;100.00
64844;BME280;51310;52.198;5.422;2023-04-24T08:52:08;100280.94;;;6.62;100.00
64844;BME280;51310;52.198;5.422;2023-04-24T08:54:35;100292.97;;;6.63;100.00
64844;BME280;51310;52.198;5.422;2023-04-24T08:57:02;100282.59;;;6.61;100.00
64844;BME280;51310;52.198;5.422;2023-04-24T08:59:31;100295.47;;;6.54;100.00
64844;BME280;51310;52.198;5.422;2023-04-24T09:01:57;100296.53;;;6.56;100.00
64844;BME280;51310;52.198;5.422;2023-04-24T09:04:25;100302.13;;;6.61;100.00
64844;BME280;51310;52.198;5.422;2023-04-24T09:06:57;100304.59;;;6.68;100.00
64844;BME280;51310;52.198;5.422;2023-04-24T09:09:24;100291.38;;;6.72;100.00
64844;BME280;51310;52.198;5.422;2023-04-24T09:11:51;100292.50;;;6.91;100.00
64844;BME280;51310;52.198;5.422;2023-04-24T09:14:20;100276.28;;;7.08;100.00
64844;BME280;51310;52.198;5.422;2023-04-24T09:16:47;100274.50;;;7.16;100.00
64844;BME280;51310;52.198;5.422;2023-04-24T09:19:13;100286.44;;;7.24;100.00
64844;BME280;51310;52.198;5.422;2023-04-24T09:21:39;100269.44;;;7.33;100.00
64844;BME280;51310;52.198;5.422;2023-04-24T09:24:08;100277.13;;;7.42;100.00
64844;BME280;51310;52.198;5.422;2023-04-24T09:26:39;100282.41;;;7.52;100.00
64844;BME280;51310;52.198;5.422;2023-04-24T09:29:05;100275.34;;;7.58;100.00
64844;BME280;51310;52.198;5.422;2023-04-24T09:31:31;100289.19;;;7.52;100.00
64844;BME280;51310;52.198;5.422;2023-04-24T09:34:00;100279.53;;;7.49;100.00
64844;BME280;51310;52.198;5.422;2023-04-24T09:36:34;100286.47;;;7.50;100.00
64844;BME280;51310;52.198;5.422;2023-04-24T09:39:07;100289.47;;;7.46;100.00
64844;BME280;51310;52.198;5.422;2023-04-24T09:41:33;100303.78;;;7.44;100.00
64844;BME280;51310;52.198;5.422;2023-04-24T09:44:13;100300.59;;;7.38;100.00
64844;BME280;51310;52.198;5.422;2023-04-24T09:46:42;100324.84;;;7.33;100.00
64844;BME280;51310;52.198;5.422;2023-04-24T09:49:12;100327.41;;;7.33;100.00
64844;BME280;51310;52.198;5.422;2023-04-24T09:51:39;100319.72;;;7.33;100.00
64844;BME280;51310;52.198;5.422;2023-04-24T09:54:14;100319.91;;;7.34;100.00
64844;BME280;51310;52.198;5.422;2023-04-24T09:56:47;100316.59;;;7.44;100.00
64844;BME280;51310;52.198;5.422;2023-04-24T09:59:15;100330.75;;;7.58;100.00
64844;BME280;51310;52.198;5.422;2023-04-24T10:01:42;100327.16;;;7.56;100.00
64844;BME280;51310;52.198;5.422;2023-04-24T10:04:21;100322.34;;;7.68;100.00
64844;BME280;51310;52.198;5.422;2023-04-24T10:06:49;100326.44;;;7.92;100.00
64844;BME280;51310;52.198;5.422;2023-04-24T10:09:22;100330.81;;;8.01;100.00
64844;BME280;51310;52.198;5.422;2023-04-24T10:11:51;100336.69;;;8.00;100.00
64844;BME280;51310;52.198;5.422;2023-04-24T10:14:20;100337.72;;;7.94;100.00
64844;BME280;51310;52.198;5.422;2023-04-24T10:16:47;100333.50;;;8.03;100.00
64844;BME280;51310;52.198;5.422;2023-04-24T10:19:14;100335.34;;;8.04;100.00
64844;BME280;51310;52.198;5.422;2023-04-24T10:21:43;100344.97;;;8.15;100.00
64844;BME280;51310;52.198;5.422;2023-04-24T10:24:17;100339.06;;;7.90;100.00
64844;BME280;51310;52.198;5.422;2023-04-24T10:26:46;100350.25;;;7.73;100.00
64844;BME280;51310;52.198;5.422;2023-04-24T10:29:16;100346.75;;;7.90;100.00
64844;BME280;51310;52.198;5.422;2023-04-24T10:31:42;100342.69;;;8.18;100.00
64844;BME280;51310;52.198;5.422;2023-04-24T10:34:11;100343.47;;;8.44;100.00
64844;BME280;51310;52.198;5.422;2023-04-24T10:36:43;100348.25;;;8.67;100.00
64844;BME280;51310;52.198;5.422;2023-04-24T10:39:13;100348.03;;;8.82;100.00
64844;BME280;51310;52.198;5.422;2023-04-24T10:41:41;100357.84;;;8.87;100.00
64844;BME280;51310;52.198;5.422;2023-04-24T10:44:13;100359.16;;;8.55;100.00
64844;BME280;51310;52.198;5.422;2023-04-24T10:46:44;100356.72;;;8.48;100.00
64844;BME280;51310;52.198;5.422;2023-04-24T10:49:10;100362.28;;;8.35;100.00
64844;BME280;51310;52.198;5.422;2023-04-24T10:51:48;100372.09;;;8.57;100.00
64844;BME280;51310;52.198;5.422;2023-04-24T10:54:35;100369.09;;;8.44;100.00
64844;BME280;51310;52.198;5.422;2023-04-24T10:57:27;100380.41;;;8.46;100.00
64844;BME280;51310;52.198;5.422;2023-04-24T11:00:21;100385.53;;;8.28;100.00
64844;BME280;51310;52.198;5.422;2023-04-24T11:02:48;100403.25;;;7.74;100.00
64844;BME280;51310;52.198;5.422;2023-04-24T11:05:20;100415.88;;;7.13;100.00
64844;BME280;51310;52.198;5.422;2023-04-24T11:10:45;100429.81;;;7.08;100.00
64844;BME280;51310;52.198;5.422;2023-04-24T11:13:21;100434.69;;;7.14;100.00
64844;BME280;51310;52.198;5.422;2023-04-24T11:16:30;100422.84;;;7.32;100.00
64844;BME280;51310;52.198;5.422;2023-04-24T11:21:56;100426.19;;;7.90;100.00
64844;BME280;51310;52.198;5.422;2023-04-24T11:27:19;100426.56;;;8.72;100.00
64844;BME280;51310;52.198;5.422;2023-04-24T11:37:27;100418.84;;;8.80;100.00
64844;BME280;51310;52.198;5.422;2023-04-24T11:39:56;100425.47;;;8.87;100.00
64844;BME280;51310;52.198;5.422;2023-04-24T11:42:22;100410.09;;;8.70;100.00
64844;BME280;51310;52.198;5.422;2023-04-24T11:44:52;100437.22;;;8.94;100.00
64844;BME280;51310;52.198;5.422;2023-04-24T11:47:18;100430.31;;;8.84;100.00
64844;BME280;51310;52.198;5.422;2023-04-24T11:49:43;100426.91;;;9.11;100.00
64844;BME280;51310;52.198;5.422;2023-04-24T11:52:09;100426.03;;;9.47;100.00
64844;BME280;51310;52.198;5.422;2023-04-24T11:54:36;100436.56;;;9.50;100.00
64844;BME280;51310;52.198;5.422;2023-04-24T11:57:05;100446.88;;;9.41;100.00
64844;BME280;51310;52.198;5.422;2023-04-24T11:59:36;100457.47;;;9.44;100.00
64844;BME280;51310;52.198;5.422;2023-04-24T12:02:03;100456.28;;;9.41;100.00
64844;BME280;51310;52.198;5.422;2023-04-24T12:04:39;100458.41;;;9.36;100.00
64844;BME280;51310;52.198;5.422;2023-04-24T12:07:06;100451.94;;;9.31;100.00
64844;BME280;51310;52.198;5.422;2023-04-24T12:09:42;100454.69;;;9.15;100.00
64844;BME280;51310;52.198;5.422;2023-04-24T12:12:08;100455.72;;;9.26;100.00
64844;BME280;51310;52.198;5.422;2023-04-24T12:14:44;100468.72;;;9.19;100.00
64844;BME280;51310;52.198;5.422;2023-04-24T12:17:10;100469.47;;;9.27;100.00
64844;BME280;51310;52.198;5.422;2023-04-24T12:19:36;100459.84;;;9.07;100.00
64844;BME280;51310;52.198;5.422;2023-04-24T12:22:05;100477.34;;;9.19;100.00
64844;BME280;51310;52.198;5.422;2023-04-24T12:24:31;100477.66;;;9.22;100.00
64844;BME280;51310;52.198;5.422;2023-04-24T12:26:58;100479.22;;;9.48;100.00
64844;BME280;51310;52.198;5.422;2023-04-24T12:29:24;100493.34;;;9.71;100.00
64844;BME280;51310;52.198;5.422;2023-04-24T12:31:51;100488.00;;;9.41;100.00
64844;BME280;51310;52.198;5.422;2023-04-24T12:34:22;100486.34;;;9.42;100.00
64844;BME280;51310;52.198;5.422;2023-04-24T12:36:48;100489.59;;;9.58;100.00
64844;BME280;51310;52.198;5.422;2023-04-24T12:39:18;100494.63;;;9.57;100.00
64844;BME280;51310;52.198;5.422;2023-04-24T12:41:57;100491.50;;;9.70;100.00
64844;BME280;51310;52.198;5.422;2023-04-24T12:44:35;100496.97;;;9.73;100.00
64844;BME280;51310;52.198;5.422;2023-04-24T12:47:02;100507.88;;;9.16;100.00
64844;BME280;51310;52.198;5.422;2023-04-24T12:49:30;100502.91;;;8.83;100.00
64844;BME280;51310;52.198;5.422;2023-04-24T12:51:56;100516.34;;;8.63;100.00
64844;BME280;51310;52.198;5.422;2023-04-24T12:54:22;100516.34;;;8.46;100.00
64844;BME280;51310;52.198;5.422;2023-04-24T12:56:47;100530.28;;;7.72;100.00
64844;BME280;51310;52.198;5.422;2023-04-24T12:59:13;100552.69;;;7.33;100.00
64844;BME280;51310;52.198;5.422;2023-04-24T13:01:40;100558.84;;;7.10;100.00
64844;BME280;51310;52.198;5.422;2023-04-24T13:04:06;100573.50;;;6.95;100.00
64844;BME280;51310;52.198;5.422;2023-04-24T13:06:32;100586.47;;;6.81;100.00
64844;BME280;51310;52.198;5.422;2023-04-24T13:08:58;100592.88;;;6.77;100.00
64844;BME280;51310;52.198;5.422;2023-04-24T13:11:24;100582.72;;;6.86;100.00